Time;durP1;ratioP1;P1;durP2;ratioP2;P2;SDS_P1;SDS_P2;PMS_P1;PMS_P2;Temp;Humidity;BMP_temperature;BMP_pressure;BME280_temperature;BME280_humidity;BME280_pressure;Samples;Min_cycle;Max_cycle;Signal;HPM_P1;HPM_P2
2022/10/29 00:00:51;;;;;;;20.62;12.25;;;;;;;14.87;91.25;101041.72;1800600;78;25842;-77
2022/10/29 00:03:20;;;;;;;17.50;11.35;;;;;;;14.84;91.28;101034.05;1799896;78;25740;-78
2022/10/29 00:06:06;;;;;;;20.17;12.45;;;;;;;14.81;91.14;101036.63;1801822;78;25791;-78
2022/10/29 00:08:36;;;;;;;17.37;11.12;;;;;;;14.80;91.23;101034.95;1792179;78;27448;-80
2022/10/29 00:11:17;;;;;;;16.35;11.25;;;;;;;14.77;91.11;101035.38;1799050;78;25527;-80
2022/10/29 00:13:45;;;;;;;23.73;12.33;;;;;;;14.75;90.99;101033.91;1793302;78;25823;-79
2022/10/29 00:16:15;;;;;;;20.45;12.82;;;;;;;14.71;91.00;101027.27;1787253;79;25795;-79
2022/10/29 00:18:43;;;;;;;18.48;11.95;;;;;;;14.67;90.91;101025.48;1787540;78;25514;-80
2022/10/29 00:21:13;;;;;;;16.25;10.93;;;;;;;14.63;90.89;101025.06;1809830;77;27456;-79
2022/10/29 00:23:40;;;;;;;19.73;11.70;;;;;;;14.62;91.08;101026.11;1836198;77;25885;-80
2022/10/29 00:26:07;;;;;;;20.37;11.83;;;;;;;14.62;90.96;101019.88;1830151;77;26434;-79
2022/10/29 00:28:34;;;;;;;19.50;11.60;;;;;;;14.60;91.02;101014.70;1842937;76;26215;-79
2022/10/29 00:31:06;;;;;;;24.25;12.58;;;;;;;14.60;90.96;101017.40;1827160;76;25839;-80
2022/10/29 00:33:33;;;;;;;20.43;12.98;;;;;;;14.59;90.71;101022.97;1837117;77;28245;-79
2022/10/29 00:36:04;;;;;;;17.60;11.35;;;;;;;14.57;90.91;101016.95;1845040;76;26448;-79
2022/10/29 00:38:33;;;;;;;16.73;11.28;;;;;;;14.56;90.87;101020.16;1836473;76;26331;-79
2022/10/29 00:41:00;;;;;;;21.52;11.93;;;;;;;14.55;90.75;101016.33;1829345;76;25471;-80
2022/10/29 00:43:27;;;;;;;18.48;11.30;;;;;;;14.53;90.65;101012.49;1844451;77;26568;-79
2022/10/29 00:46:13;;;;;;;17.37;11.48;;;;;;;14.53;90.60;101010.30;1845002;77;27462;-79
2022/10/29 00:48:46;;;;;;;16.45;10.98;;;;;;;14.52;90.61;101009.47;1806013;78;25860;-80
2022/10/29 00:51:14;;;;;;;21.90;11.43;;;;;;;14.51;90.48;101000.24;1837734;77;26011;-80
2022/10/29 00:53:46;;;;;;;17.30;12.25;;;;;;;14.48;90.48;100987.16;1800623;78;25875;-80
2022/10/29 00:56:13;;;;;;;18.15;12.10;;;;;;;14.47;90.42;101001.17;1802833;77;25942;-79
2022/10/29 00:58:40;;;;;;;16.55;11.78;;;;;;;14.45;90.29;101000.55;1847930;76;27449;-80
2022/10/29 01:01:08;;;;;;;19.07;11.08;;;;;;;14.43;90.13;101001.27;1806701;78;25262;-80
2022/10/29 01:03:35;;;;;;;19.62;11.15;;;;;;;14.41;90.12;101004.66;1832759;76;25887;-79
2022/10/29 01:06:02;;;;;;;18.73;10.82;;;;;;;14.36;89.90;101003.61;1825856;77;25936;-80
2022/10/29 01:08:29;;;;;;;16.27;10.03;;;;;;;14.35;90.04;101004.66;1846520;76;25865;-79
2022/10/29 01:11:21;;;;;;;15.30;10.32;;;;;;;14.31;89.97;101004.72;1844665;76;27414;-80
2022/10/29 01:14:11;;;;;;;16.45;10.20;;;;;;;14.29;89.94;101006.78;1829840;76;26038;-80
2022/10/29 01:17:04;;;;;;;16.48;9.95;;;;;;;14.26;90.04;101012.56;1834507;76;25726;-79
2022/10/29 01:20:16;;;;;;;15.30;10.65;;;;;;;14.20;89.82;101006.09;1812929;78;26360;-79
2022/10/29 01:23:06;;;;;;;17.52;10.70;;;;;;;14.13;89.79;101011.14;1785242;79;43983;-78
2022/10/29 01:26:04;;;;;;;15.18;10.20;;;;;;;14.06;89.92;101011.11;1809009;78;28830;-78
2022/10/29 01:28:57;;;;;;;18.98;10.30;;;;;;;14.02;90.07;101009.84;1821117;76;25897;-78
2022/10/29 01:31:34;;;;;;;15.38;10.05;;;;;;;14.02;90.20;101002.28;1817763;77;25739;-78
2022/10/29 01:34:15;;;;;;;19.85;11.28;;;;;;;13.98;90.04;101000.50;1808331;77;26300;-79
2022/10/29 01:36:45;;;;;;;;;;;;;;;13.97;90.18;100993.44;1834154;76;26018;-79
2022/10/29 01:39:23;;;;;;;16.60;10.18;;;;;;;13.97;90.11;100997.98;1832888;77;28114;-79
2022/10/29 01:42:11;;;;;;;15.35;9.83;;;;;;;13.94;90.20;101001.40;1808198;78;26580;-79
2022/10/29 01:44:49;;;;;;;21.40;9.80;;;;;;;13.94;90.19;101003.28;1804939;77;25937;-80
2022/10/29 01:47:18;;;;;;;18.55;10.72;;;;;;;13.94;90.16;100995.20;1835284;77;25718;-79
2022/10/29 01:49:59;;;;;;;15.75;10.05;;;;;;;13.94;90.03;100999.24;1811871;78;25788;-79
2022/10/29 01:52:31;;;;;;;15.80;10.00;;;;;;;13.94;89.98;100990.63;1798627;78;27447;-79
2022/10/29 01:54:57;;;;;;;14.40;9.65;;;;;;;13.93;89.74;100988.14;1774090;78;26409;-79
2022/10/29 01:57:37;;;;;;;15.08;9.18;;;;;;;13.88;89.59;100982.00;1832126;77;25701;-79
2022/10/29 02:00:12;;;;;;;15.48;10.55;;;;;;;13.87;89.53;100991.63;1832756;77;26547;-80
2022/10/29 02:02:59;;;;;;;14.03;10.65;;;;;;;13.84;89.57;100986.63;1828824;77;26437;-80
2022/10/29 02:05:43;;;;;;;16.23;9.38;;;;;;;13.84;89.68;100994.20;1838494;76;27451;-80
2022/10/29 02:08:29;;;;;;;13.90;9.25;;;;;;;13.86;89.76;100983.22;1804893;78;25837;-80
2022/10/29 02:11:04;;;;;;;13.90;9.33;;;;;;;13.83;89.44;100977.75;1793129;78;25742;-80
2022/10/29 02:13:35;;;;;;;15.45;8.98;;;;;;;13.81;89.41;100974.93;1822849;78;26373;-80
2022/10/29 02:16:06;;;;;;;13.00;9.10;;;;;;;13.81;89.52;100970.89;1796169;78;25756;-80
2022/10/29 02:18:41;;;;;;;16.30;9.33;;;;;;;13.81;89.40;100968.20;1810484;78;28403;-78
2022/10/29 02:21:08;;;;;;;17.65;9.08;;;;;;;13.80;89.30;100967.36;1837851;76;26441;-78
2022/10/29 02:23:34;;;;;;;14.20;9.18;;;;;;;13.80;89.33;100966.52;1801396;77;26346;-79
2022/10/29 02:26:00;;;;;;;16.97;9.50;;;;;;;13.77;89.13;100961.02;1810841;78;25896;-78
2022/10/29 02:28:27;;;;;;;12.95;8.15;;;;;;;13.74;88.86;100960.08;1801238;78;25771;-78
2022/10/29 02:30:53;;;;;;;14.20;8.63;;;;;;;13.69;89.07;100951.76;1790493;78;27434;-79
2022/10/29 02:33:20;;;;;;;16.55;8.58;;;;;;;13.68;89.09;100952.80;1807516;78;25827;-78
2022/10/29 02:35:46;;;;;;;15.32;8.80;;;;;;;13.69;89.17;100947.72;1797199;79;26460;-78
2022/10/29 02:38:13;;;;;;;16.48;9.33;;;;;;;13.69;89.15;100944.19;1805900;78;26241;-79
2022/10/29 02:40:39;;;;;;;12.78;7.78;;;;;;;13.69;89.09;100946.38;1791973;79;25898;-79
2022/10/29 02:43:05;;;;;;;15.20;9.03;;;;;;;13.69;89.21;100942.84;1792744;78;28301;-78
2022/10/29 02:45:32;;;;;;;16.40;7.92;;;;;;;13.67;89.06;100939.02;1801664;78;25772;-78
2022/10/29 02:47:58;;;;;;;15.80;8.65;;;;;;;13.69;89.12;100944.19;1798964;79;25798;-79
2022/10/29 02:50:24;;;;;;;15.53;8.68;;;;;;;13.69;89.09;100938.80;1789686;79;26126;-78
2022/10/29 02:52:50;;;;;;;15.08;9.03;;;;;;;13.69;89.00;100942.84;1796109;79;25815;-78
2022/10/29 02:55:17;;;;;;;12.28;8.30;;;;;;;13.68;88.98;100939.34;1796863;79;27510;-79
2022/10/29 02:57:44;;;;;;;11.28;8.00;;;;;;;13.68;88.87;100938.00;1792138;79;26008;-78
2022/10/29 03:00:12;;;;;;;9.68;7.83;;;;;;;13.65;88.67;100926.27;1805944;78;25673;-78
2022/10/29 03:02:39;;;;;;;13.32;8.03;;;;;;;13.64;88.66;100918.40;1808121;78;26445;-78
2022/10/29 03:05:07;;;;;;;14.73;8.78;;;;;;;13.63;88.72;100916.22;1794633;79;25273;-78
2022/10/29 03:07:37;;;;;;;21.42;9.20;;;;;;;13.62;88.59;100914.54;1794304;79;27451;-79
2022/10/29 03:10:06;;;;;;;13.08;8.13;;;;;;;13.61;88.59;100912.89;1797856;78;25974;-79
2022/10/29 03:12:33;;;;;;;13.93;7.42;;;;;;;13.58;88.66;100914.63;1794477;79;26521;-79
2022/10/29 03:15:00;;;;;;;12.85;7.67;;;;;;;13.56;88.64;100913.99;1794637;79;26324;-79
2022/10/29 03:17:26;;;;;;;12.63;8.38;;;;;;;13.55;88.65;100915.55;1795575;78;25747;-79
2022/10/29 03:19:52;;;;;;;16.35;9.73;;;;;;;13.54;88.64;100911.17;1804270;77;27502;-79
2022/10/29 03:22:18;;;;;;;13.22;8.45;;;;;;;13.53;88.62;100914.91;1804796;77;26504;-80
2022/10/29 03:24:45;;;;;;;13.35;8.10;;;;;;;13.51;88.75;100911.59;1780386;78;25740;-79
2022/10/29 03:27:11;;;;;;;18.85;8.23;;;;;;;13.52;88.82;100915.93;1808466;77;25819;-79
2022/10/29 03:29:37;;;;;;;14.23;8.55;;;;;;;13.51;88.89;100908.39;1788124;78;25806;-79
2022/10/29 03:32:04;;;;;;;10.75;8.10;;;;;;;13.53;88.92;100912.22;1808558;78;27445;-79
2022/10/29 03:34:30;;;;;;;13.98;7.90;;;;;;;13.52;88.93;100907.34;1807772;78;25699;-79
2022/10/29 03:36:57;;;;;;;13.28;7.45;;;;;;;13.52;88.90;100916.77;1811268;77;25778;-79
2022/10/29 03:39:23;;;;;;;16.57;8.15;;;;;;;13.53;88.89;100927.02;1832371;77;25836;-79
2022/10/29 03:41:49;;;;;;;17.37;8.50;;;;;;;13.50;88.87;100928.75;1810558;77;26396;-79
2022/10/29 03:44:16;;;;;;;13.72;8.18;;;;;;;13.48;88.79;100934.84;1803346;77;27457;-79
2022/10/29 03:46:42;;;;;;;13.70;8.23;;;;;;;13.45;89.01;100927.19;1810309;77;25341;-79
2022/10/29 03:49:08;;;;;;;13.85;7.10;;;;;;;13.45;89.13;100930.69;1806131;77;25774;-79
2022/10/29 03:51:35;;;;;;;16.07;8.18;;;;;;;13.42;88.97;100928.91;1794219;78;26245;-79
2022/10/29 03:54:01;;;;;;;17.60;7.75;;;;;;;13.40;89.14;100926.94;1825543;76;26350;-79
2022/10/29 03:56:27;;;;;;;13.18;8.10;;;;;;;13.39;89.22;100922.56;1824992;77;27433;-79
2022/10/29 03:58:53;;;;;;;13.38;8.38;;;;;;;13.38;89.27;100925.80;1833990;76;25858;-79
2022/10/29 04:01:20;;;;;;;13.88;8.70;;;;;;;13.40;89.37;100921.55;1818382;77;25293;-79
2022/10/29 04:03:46;;;;;;;13.20;8.13;;;;;;;13.40;89.46;100913.48;1827732;76;25779;-78
2022/10/29 04:06:14;;;;;;;13.95;8.23;;;;;;;13.41;89.39;100915.97;1822318;77;25707;-79
2022/10/29 04:08:41;;;;;;;11.85;8.10;;;;;;;13.42;89.37;100915.46;1830426;77;27451;-79
2022/10/29 04:11:12;;;;;;;15.25;8.73;;;;;;;13.42;89.39;100909.57;1833654;77;25890;-79
2022/10/29 04:13:39;;;;;;;14.03;8.50;;;;;;;13.42;89.49;100912.27;1838567;76;26467;-79
2022/10/29 04:16:06;;;;;;;14.55;8.40;;;;;;;13.46;89.57;100905.95;1833495;76;26324;-78
2022/10/29 04:18:33;;;;;;;14.78;7.75;;;;;;;13.47;89.59;100907.09;1838826;77;25901;-78
2022/10/29 04:21:01;;;;;;;15.28;8.50;;;;;;;13.49;89.60;100894.31;1809734;77;27429;-78
2022/10/29 04:23:28;;;;;;;14.73;8.53;;;;;;;13.50;89.60;100897.30;1804403;79;25997;-78
2022/10/29 04:25:58;;;;;;;14.73;8.40;;;;;;;13.51;89.65;100895.45;1808970;78;25241;-78
2022/10/29 04:28:24;;;;;;;14.43;7.72;;;;;;;13.52;89.59;100893.89;1825982;76;25582;-77
2022/10/29 04:30:51;;;;;;;12.70;8.05;;;;;;;13.53;89.59;100901.45;1811901;77;26423;-77
2022/10/29 04:33:18;;;;;;;13.80;8.25;;;;;;;13.50;89.41;100909.41;1816066;78;28751;-78
2022/10/29 04:35:54;;;;;;;14.03;7.50;;;;;;;13.49;89.46;100907.77;1834712;77;25761;-78
2022/10/29 04:38:20;;;;;;;13.60;8.15;;;;;;;13.50;89.45;100901.34;1813003;78;25848;-78
2022/10/29 04:40:47;;;;;;;11.25;8.28;;;;;;;13.50;89.59;100904.53;1819314;78;25673;-78
2022/10/29 04:43:14;;;;;;;15.05;8.60;;;;;;;13.51;89.59;100901.66;1808695;78;25757;-78
2022/10/29 04:45:40;;;;;;;15.88;8.68;;;;;;;13.50;89.60;100895.95;1827532;77;27452;-77
2022/10/29 04:48:07;;;;;;;15.20;7.70;;;;;;;13.52;89.64;100889.85;1798510;79;25931;-77
2022/10/29 04:50:37;;;;;;;15.78;7.70;;;;;;;13.53;89.72;100898.26;1811419;78;26401;-78
2022/10/29 04:53:06;;;;;;;15.98;8.70;;;;;;;13.54;89.71;100907.98;1825599;77;25694;-78
2022/10/29 04:55:37;;;;;;;10.20;7.17;;;;;;;13.53;89.67;100898.26;1828609;77;26414;-78
2022/10/29 04:58:12;;;;;;;15.05;8.05;;;;;;;13.55;89.78;100887.28;1825661;77;27445;-78
2022/10/29 05:00:39;;;;;;;12.93;7.45;;;;;;;13.56;89.73;100913.99;1829477;77;26013;-77
2022/10/29 05:03:05;;;;;;;16.87;7.70;;;;;;;13.55;89.70;100920.92;1811953;78;25918;-79
2022/10/29 05:05:32;;;;;;;11.50;7.40;;;;;;;13.53;89.77;100911.72;1798488;78;25850;-78
2022/10/29 05:08:02;;;;;;;14.50;7.37;;;;;;;13.53;89.76;100920.30;1812889;78;26463;-79
2022/10/29 05:10:32;;;;;;;11.30;7.37;;;;;;;13.51;89.94;100920.50;1826473;77;27443;-79
2022/10/29 05:13:06;;;;;;;10.30;6.72;;;;;;;13.53;90.05;100925.68;1797507;77;25843;-78
2022/10/29 05:15:33;;;;;;;12.95;8.20;;;;;;;13.54;90.12;100938.09;1813092;77;25866;-78
2022/10/29 05:18:00;;;;;;;14.70;7.67;;;;;;;13.55;90.24;100938.42;1832280;77;26293;-78
2022/10/29 05:20:27;;;;;;;10.85;6.92;;;;;;;13.58;90.31;100927.27;1800431;78;25669;-79
2022/10/29 05:23:04;;;;;;;13.65;7.45;;;;;;;13.60;90.33;100930.59;1807828;78;27482;-78
2022/10/29 05:25:33;;;;;;;11.85;7.65;;;;;;;13.62;90.34;100933.38;1829507;77;25733;-78
2022/10/29 05:28:06;;;;;;;14.00;7.37;;;;;;;13.64;90.37;100930.52;1810025;78;25750;-78
2022/10/29 05:30:34;;;;;;;12.53;7.35;;;;;;;13.66;90.37;100931.14;1828489;77;25708;-78
2022/10/29 05:33:00;;;;;;;12.88;7.75;;;;;;;13.68;90.41;100930.43;1832276;77;25841;-78
2022/10/29 05:35:27;;;;;;;13.58;7.42;;;;;;;13.71;90.36;100935.40;1826473;77;28173;-79
2022/10/29 05:37:55;;;;;;;14.00;7.90;;;;;;;13.73;90.40;100944.94;1826957;77;25955;-78
2022/10/29 05:40:23;;;;;;;16.27;7.62;;;;;;;13.76;90.37;100945.91;1796059;78;25724;-78
2022/10/29 05:42:49;;;;;;;16.80;7.90;;;;;;;13.76;90.36;100945.91;1815470;77;26719;-78
2022/10/29 05:45:16;;;;;;;12.88;7.78;;;;;;;13.79;90.29;100940.64;1813081;78;25925;-79
2022/10/29 05:47:43;;;;;;;14.23;7.40;;;;;;;13.79;90.31;100937.41;1810564;78;28106;-78
2022/10/29 05:50:11;;;;;;;11.22;7.28;;;;;;;13.82;90.28;100928.11;1821327;77;25734;-78
2022/10/29 05:52:38;;;;;;;26.95;8.18;;;;;;;13.82;90.30;100924.06;1805483;77;26414;-78
2022/10/29 05:55:05;;;;;;;13.95;8.00;;;;;;;13.85;90.29;100923.68;1827179;77;26334;-78
2022/10/29 05:57:32;;;;;;;11.95;8.15;;;;;;;13.85;90.25;100925.03;1804459;77;25774;-78
2022/10/29 05:59:58;;;;;;;14.50;7.55;;;;;;;13.86;90.25;100919.44;1849262;76;27447;-78
2022/10/29 06:02:24;;;;;;;12.70;7.37;;;;;;;13.86;90.16;100914.05;1818470;77;25800;-78
2022/10/29 06:04:51;;;;;;;13.00;8.93;;;;;;;13.88;90.14;100911.15;1803183;78;25782;-78
2022/10/29 06:07:17;;;;;;;13.40;8.08;;;;;;;13.90;90.23;100921.20;1832409;77;26392;-78
2022/10/29 06:09:43;;;;;;;15.53;7.62;;;;;;;13.91;90.17;100917.49;1819747;78;25316;-77
2022/10/29 06:12:09;;;;;;;15.98;8.00;;;;;;;13.92;90.18;100918.63;1800827;78;27451;-78
2022/10/29 06:14:36;;;;;;;17.12;8.88;;;;;;;13.91;90.07;100914.80;1812909;78;26434;-78
2022/10/29 06:17:02;;;;;;;19.42;8.55;;;;;;;13.91;90.08;100926.41;1816444;78;25827;-79
2022/10/29 06:19:28;;;;;;;13.83;7.20;;;;;;;13.92;90.12;100926.70;1804500;78;26190;-78
2022/10/29 06:21:55;;;;;;;14.58;7.67;;;;;;;13.93;90.22;100928.38;1813479;78;25699;-78
2022/10/29 06:24:21;;;;;;;15.40;8.08;;;;;;;13.96;90.12;100918.23;1808721;78;27447;-78
2022/10/29 06:26:47;;;;;;;12.75;7.90;;;;;;;13.97;90.10;100922.58;1806197;78;25289;-78
2022/10/29 06:29:13;;;;;;;11.05;7.03;;;;;;;13.98;90.05;100933.68;1821720;78;25839;-78
2022/10/29 06:31:40;;;;;;;18.00;8.38;;;;;;;13.98;90.10;100937.72;1818897;78;26244;-78
2022/10/29 06:34:06;;;;;;;15.68;7.37;;;;;;;14.00;90.09;100935.66;1801988;78;25809;-78
2022/10/29 06:36:33;;;;;;;13.80;7.17;;;;;;;14.00;90.13;100935.15;1808464;78;27468;-78
2022/10/29 06:38:59;;;;;;;13.88;7.03;;;;;;;14.04;90.22;100940.95;1825610;78;25786;-78
2022/10/29 06:41:26;;;;;;;11.38;6.75;;;;;;;14.05;90.12;100945.32;1812740;78;25757;-78
2022/10/29 06:43:52;;;;;;;19.02;7.58;;;;;;;14.07;90.07;100938.68;1813078;78;26131;-79
2022/10/29 06:46:19;;;;;;;12.23;7.58;;;;;;;14.08;90.04;100943.05;1812191;78;25853;-78
2022/10/29 06:48:45;;;;;;;19.50;7.40;;;;;;;14.09;90.02;100950.11;1802882;78;27453;-78
2022/10/29 06:51:11;;;;;;;20.32;8.68;;;;;;;14.13;90.10;100961.31;1815944;78;25818;-79
2022/10/29 06:53:38;;;;;;;12.10;6.87;;;;;;;14.15;90.13;100962.77;1803224;78;25821;-78
2022/10/29 06:56:04;;;;;;;13.68;7.47;;;;;;;14.19;90.26;100961.34;1804077;78;26233;-78
2022/10/29 06:58:30;;;;;;;17.60;9.75;;;;;;;14.23;90.22;100963.94;1817113;78;25829;-78
2022/10/29 07:00:59;;;;;;;20.30;8.13;;;;;;;14.26;90.31;100960.85;1807128;78;27443;-78
2022/10/29 07:03:26;;;;;;;14.63;7.60;;;;;;;14.32;90.13;100961.93;1806108;78;26492;-78
2022/10/29 07:05:57;;;;;;;15.03;8.00;;;;;;;14.36;90.26;100957.80;1811929;78;26705;-78
2022/10/29 07:08:25;;;;;;;16.42;7.47;;;;;;;14.43;90.40;100950.56;1841788;76;26399;-78
2022/10/29 07:10:52;;;;;;;14.85;6.90;;;;;;;14.46;90.41;100953.67;1793330;78;25997;-79
2022/10/29 07:13:19;;;;;;;12.75;7.90;;;;;;;14.51;90.29;100948.52;1811052;77;28740;-78
2022/10/29 07:15:45;;;;;;;20.02;8.70;;;;;;;14.56;90.27;100958.69;1833238;77;25774;-78
2022/10/29 07:18:12;;;;;;;14.15;7.42;;;;;;;14.59;90.17;100952.88;1815990;77;25814;-78
2022/10/29 07:20:42;;;;;;;12.88;7.33;;;;;;;14.62;90.22;100956.02;1830421;77;25726;-78
2022/10/29 07:23:10;;;;;;;14.60;7.12;;;;;;;14.65;90.23;100947.50;1806975;78;25800;-77
2022/10/29 07:25:39;;;;;;;17.15;8.13;;;;;;;14.71;90.29;100949.07;1801212;78;28120;-78
2022/10/29 07:28:16;;;;;;;14.70;7.97;;;;;;;14.76;90.33;100948.76;1805899;78;25832;-78
2022/10/29 07:30:44;;;;;;;15.70;8.05;;;;;;;14.82;90.30;100949.82;1805287;78;25839;-78
2022/10/29 07:33:10;;;;;;;19.35;8.43;;;;;;;14.87;90.30;100962.15;1795421;78;25755;-78
2022/10/29 07:35:37;;;;;;;13.43;7.67;;;;;;;14.93;90.25;100962.67;1782946;80;25921;-78
2022/10/29 07:38:05;;;;;;;17.05;8.73;;;;;;;14.98;90.24;100960.20;1781861;79;27429;-78
2022/10/29 07:40:32;;;;;;;15.60;8.73;;;;;;;15.04;90.34;100964.25;1793561;79;25693;-78
2022/10/29 07:42:58;;;;;;;14.30;7.75;;;;;;;15.09;90.21;100953.67;1799354;79;26427;-78
2022/10/29 07:45:25;;;;;;;15.65;8.85;;;;;;;15.14;90.19;100947.12;1798328;79;26413;-78
2022/10/29 07:48:00;;;;;;;17.85;8.03;;;;;;;15.19;90.15;100947.34;1794766;78;26086;-78
2022/10/29 07:50:28;;;;;;;13.55;8.03;;;;;;;15.24;90.23;100941.32;1795129;79;27469;-78
2022/10/29 07:52:54;;;;;;;16.75;8.38;;;;;;;15.28;90.50;100933.95;1798172;78;25750;-78
2022/10/29 07:55:20;;;;;;;16.15;8.43;;;;;;;15.33;90.18;100938.18;1803924;79;25890;-78
2022/10/29 07:57:47;;;;;;;16.12;8.15;;;;;;;15.40;90.36;100944.41;1776492;79;25753;-78
2022/10/29 08:00:14;;;;;;;15.08;8.33;;;;;;;15.45;90.28;100950.56;1799538;79;25907;-77
2022/10/29 08:02:41;;;;;;;12.60;8.05;;;;;;;15.49;90.19;100958.55;1783189;79;27519;-78
2022/10/29 08:05:08;;;;;;;14.85;8.00;;;;;;;15.53;90.00;100962.48;1788299;79;25884;-78
2022/10/29 08:07:34;;;;;;;20.15;7.85;;;;;;;15.54;89.90;100965.52;1802849;79;26391;-78
2022/10/29 08:10:00;;;;;;;14.60;7.30;;;;;;;15.55;89.75;100969.86;1798620;78;26638;-77
2022/10/29 08:12:26;;;;;;;17.37;8.20;;;;;;;15.57;90.01;100965.08;1797391;78;26444;-79
2022/10/29 08:14:53;;;;;;;17.23;9.35;;;;;;;15.58;89.86;100970.80;1796173;79;27507;-78
2022/10/29 08:17:19;;;;;;;16.90;8.68;;;;;;;15.61;90.07;100972.25;1802639;78;25909;-78
2022/10/29 08:19:45;;;;;;;22.85;8.90;;;;;;;15.63;90.10;100966.13;1802016;79;25843;-77
2022/10/29 08:22:11;;;;;;;17.20;8.98;;;;;;;15.66;90.17;100968.38;1783654;79;26513;-77
2022/10/29 08:24:39;;;;;;;19.77;9.60;;;;;;;15.66;90.02;100961.63;1816045;78;25996;-78
2022/10/29 08:27:05;;;;;;;16.25;8.80;;;;;;;15.70;90.15;100962.86;1767635;79;27488;-78
2022/10/29 08:29:31;;;;;;;14.28;9.10;;;;;;;15.74;90.22;100962.78;1810739;78;25715;-78
2022/10/29 08:31:58;;;;;;;16.62;9.00;;;;;;;15.78;90.51;100963.47;1817641;77;25756;-78
2022/10/29 08:34:24;;;;;;;20.97;9.40;;;;;;;15.83;90.53;100957.44;1790164;79;25895;-78
2022/10/29 08:36:50;;;;;;;17.90;9.93;;;;;;;15.90;90.60;100960.95;1810186;78;25906;-78
2022/10/29 08:39:16;;;;;;;14.30;9.25;;;;;;;15.94;90.44;100964.89;1823180;78;28255;-78
2022/10/29 08:42:07;;;;;;;18.27;9.98;;;;;;;15.95;90.32;100976.83;1797857;78;25748;-78
2022/10/29 08:44:57;;;;;;;21.65;9.63;;;;;;;15.98;90.44;100979.63;1810366;78;25756;-77
2022/10/29 08:47:24;;;;;;;14.98;8.78;;;;;;;15.99;90.32;100979.95;1815441;78;26399;-78
2022/10/29 08:50:16;;;;;;;18.23;9.60;;;;;;;16.00;90.42;100975.67;1806542;78;25795;-78
2022/10/29 08:52:45;;;;;;;20.37;10.32;;;;;;;16.01;90.44;100966.55;1815819;78;27449;-78
2022/10/29 08:55:29;;;;;;;18.45;10.48;;;;;;;16.03;90.44;100977.13;1811682;78;25880;-78
2022/10/29 08:57:58;;;;;;;16.87;9.53;;;;;;;16.03;90.49;100977.13;1811003;78;25830;-78
2022/10/29 09:00:35;;;;;;;19.50;10.30;;;;;;;16.02;90.44;100980.86;1804099;77;25778;-78
2022/10/29 09:03:02;;;;;;;18.02;10.88;;;;;;;16.03;90.51;100983.38;1814368;78;25791;-78
2022/10/29 09:06:03;;;;;;;17.67;9.98;;;;;;;16.05;90.68;100985.85;1841405;76;27489;-78
2022/10/29 09:08:51;;;;;;;;;;;;;;;16.07;90.69;100989.17;1814210;78;25939;-78
2022/10/29 09:11:43;;;;;;;23.50;14.18;;;;;;;16.06;90.73;100995.59;1797654;78;26156;-78
2022/10/29 09:14:30;;;;;;;26.02;15.93;;;;;;;16.07;91.15;100994.06;1824836;77;25947;-77
2022/10/29 09:17:11;;;;;;;25.50;12.18;;;;;;;16.09;90.88;100987.08;1789002;78;25935;-78
2022/10/29 09:19:55;;;;;;;20.72;10.65;;;;;;;16.08;91.02;100990.30;1774263;78;28322;-78
2022/10/29 09:22:54;;;;;;;19.48;10.88;;;;;;;16.09;91.08;100985.22;1826178;77;26337;-77
2022/10/29 09:25:30;;;;;;;19.52;10.98;;;;;;;16.09;91.17;100989.27;1811434;77;25829;-77
2022/10/29 09:28:17;;;;;;;21.50;12.63;;;;;;;16.08;91.04;100983.55;1810715;78;25757;-78
2022/10/29 09:30:58;;;;;;;19.37;11.48;;;;;;;16.08;91.44;100986.24;1800003;78;25744;-78
2022/10/29 09:33:25;;;;;;;71.17;56.08;;;;;;;16.11;91.52;100983.13;1782165;79;27483;-78
2022/10/29 09:35:55;;;;;;;106.30;67.35;;;;;;;16.12;91.79;100983.42;1800785;78;26524;-78
2022/10/29 09:38:32;;;;;;;89.57;46.73;;;;;;;16.16;91.99;100990.60;1759656;79;25867;-78
2022/10/29 09:41:01;;;;;;;34.80;19.95;;;;;;;16.18;91.89;100993.92;1795492;78;25814;-78
2022/10/29 09:44:05;;;;;;;25.00;14.73;;;;;;;16.21;91.99;100994.31;1792559;79;25876;-78
2022/10/29 09:47:19;;;;;;;41.98;30.85;;;;;;;16.24;92.02;101011.98;1794052;78;27697;-77
2022/10/29 09:50:15;;;;;;;30.23;17.40;;;;;;;16.23;91.96;101013.84;1804807;78;26437;-77
2022/10/29 09:52:45;;;;;;;46.85;28.30;;;;;;;16.24;92.15;101014.68;1780470;79;25857;-78
2022/10/29 09:55:37;;;;;;;45.38;27.42;;;;;;;16.23;92.16;101015.70;1797251;79;26682;-78
2022/10/29 09:58:05;;;;;;;40.08;22.52;;;;;;;16.23;92.25;101021.11;1794731;78;25752;-79
2022/10/29 10:00:34;;;;;;;27.95;17.52;;;;;;;16.25;92.45;101008.25;1825041;77;28665;-79
2022/10/29 10:03:29;;;;;;;30.72;15.30;;;;;;;16.27;92.53;101003.97;1823100;77;25852;-79
2022/10/29 10:06:03;;;;;;;26.48;14.75;;;;;;;16.30;92.47;101003.52;1778770;79;26528;-79
2022/10/29 10:08:32;;;;;;;20.35;12.88;;;;;;;16.30;92.87;101004.36;1776178;79;26648;-79
2022/10/29 10:11:07;;;;;;;25.27;13.35;;;;;;;16.35;92.91;100988.34;1790896;78;25847;-79
2022/10/29 10:13:39;;;;;;;23.05;13.13;;;;;;;16.41;92.80;100983.42;1808978;78;28255;-78
2022/10/29 10:16:06;;;;;;;18.42;11.28;;;;;;;16.46;93.08;100988.18;1797655;78;25779;-79
2022/10/29 10:18:39;;;;;;;21.80;11.78;;;;;;;16.50;93.01;100992.14;1799628;78;25884;-79
2022/10/29 10:21:25;;;;;;;19.65;13.45;;;;;;;16.54;93.07;100997.42;1795715;78;25460;-78
2022/10/29 10:23:53;;;;;;;21.80;12.47;;;;;;;16.59;93.27;100994.91;1792877;79;25869;-79
2022/10/29 10:26:42;;;;;;;22.73;11.55;;;;;;;16.62;92.94;100983.64;1794728;78;28435;-79
2022/10/29 10:29:16;;;;;;;28.73;14.80;;;;;;;16.65;93.18;100989.98;1790363;78;25874;-79
2022/10/29 10:31:47;;;;;;;26.12;13.05;;;;;;;16.67;93.01;101006.31;1792558;79;26317;-79
2022/10/29 10:34:25;;;;;;;22.07;12.30;;;;;;;16.71;93.24;101007.53;1849102;76;25764;-79
2022/10/29 10:37:04;;;;;;;19.52;11.75;;;;;;;16.76;93.08;101006.88;1833537;77;25810;-79
2022/10/29 10:39:42;;;;;;;21.35;11.30;;;;;;;16.79;93.13;101004.56;1846062;76;27445;-78
2022/10/29 10:42:27;;;;;;;18.37;11.48;;;;;;;16.84;93.17;101003.40;1837224;77;25745;-78
2022/10/29 10:45:01;;;;;;;22.20;12.63;;;;;;;16.89;93.11;101004.91;1806794;78;26384;-79
2022/10/29 10:47:33;;;;;;;22.95;11.55;;;;;;;16.96;93.03;101004.87;1815215;78;26416;-79
2022/10/29 10:50:29;;;;;;;24.55;11.97;;;;;;;17.04;93.17;101018.67;1810368;78;25790;-78
2022/10/29 10:53:20;;;;;;;21.93;11.40;;;;;;;17.10;93.21;101010.52;1813438;78;27469;-79
2022/10/29 10:55:58;;;;;;;20.88;11.03;;;;;;;17.16;92.79;101012.86;1816455;78;25769;-79
2022/10/29 10:58:43;;;;;;;19.60;11.57;;;;;;;17.16;92.66;101010.98;1802419;79;25731;-80
2022/10/29 11:01:14;;;;;;;19.05;12.35;;;;;;;17.16;92.48;101008.27;1795898;78;25785;-80
2022/10/29 11:04:10;;;;;;;17.42;11.18;;;;;;;17.14;92.21;101011.73;1815591;78;25783;-79
2022/10/29 11:06:42;;;;;;;20.23;10.68;;;;;;;17.13;91.96;101003.29;1818477;77;27478;-79
2022/10/29 11:09:34;;;;;;;19.77;11.10;;;;;;;17.15;91.96;101005.80;1828670;76;25898;-79
2022/10/29 11:12:12;;;;;;;14.95;10.20;;;;;;;17.16;92.01;101000.67;1831273;77;25729;-79
2022/10/29 11:14:45;;;;;;;20.35;12.03;;;;;;;17.19;91.99;101004.30;1795635;78;25663;-79
2022/10/29 11:17:47;;;;;;;20.62;12.00;;;;;;;17.21;92.19;101003.56;1820083;77;26402;-79
2022/10/29 11:20:22;;;;;;;21.27;11.10;;;;;;;17.20;91.71;100994.59;1823944;78;28258;-79
2022/10/29 11:23:13;;;;;;;19.52;11.38;;;;;;;17.19;91.85;100999.73;1805578;78;25699;-79
2022/10/29 11:25:48;;;;;;;22.42;12.28;;;;;;;17.20;92.12;101002.72;1799543;78;25741;-78
2022/10/29 11:28:35;;;;;;;19.70;11.78;;;;;;;17.19;91.74;101001.08;1820692;78;25941;-77
2022/10/29 11:31:19;;;;;;;18.92;11.75;;;;;;;17.19;92.04;101009.72;1815794;77;25296;-79
2022/10/29 11:34:11;;;;;;;22.75;11.65;;;;;;;17.18;91.94;101011.59;1807866;77;27357;-79
2022/10/29 11:36:46;;;;;;;22.90;11.30;;;;;;;17.19;91.92;101013.78;1807873;78;25805;-80